Time;durP1;ratioP1;P1;durP2;ratioP2;P2;SDS_P1;SDS_P2;PMS_P1;PMS_P2;Temp;Humidity;BMP_temperature;BMP_pressure;BME280_temperature;BME280_humidity;BME280_pressure;Samples;Min_cycle;Max_cycle;Signal;HPM_P1;HPM_P2
2022/04/27 00:00:41;;;;;;;4.40;2.70;;;;;;;9.55;81.69;99503.60;109092;1276;138021;-64
2022/04/27 00:03:12;;;;;;;3.80;2.90;;;;;;;9.54;81.68;99505.05;109022;1277;22231;-65
2022/04/27 00:05:44;;;;;;;3.70;3.30;;;;;;;9.53;81.57;99505.98;109106;1276;137923;-65
2022/04/27 00:08:12;;;;;;;4.80;3.30;;;;;;;9.52;81.72;99513.20;108727;1277;22523;-65
2022/04/27 00:10:45;;;;;;;4.80;3.00;;;;;;;9.51;81.71;99513.80;109105;1277;138626;-65
2022/04/27 00:13:20;;;;;;;4.50;3.40;;;;;;;9.51;81.80;99515.33;109258;1275;22418;-65
2022/04/27 00:15:57;;;;;;;3.10;2.70;;;;;;;9.50;81.87;99515.75;109185;1276;22489;-65
2022/04/27 00:18:32;;;;;;;4.40;2.90;;;;;;;9.50;81.98;99517.65;109095;1277;137607;-64
2022/04/27 00:21:01;;;;;;;5.00;2.70;;;;;;;9.49;81.93;99520.02;109086;1277;22551;-64
2022/04/27 00:23:34;;;;;;;5.40;2.60;;;;;;;9.48;81.96;99521.47;108930;1277;138835;-64
2022/04/27 00:26:03;;;;;;;2.90;2.40;;;;;;;9.44;81.96;99515.92;109260;1276;22456;-64
2022/04/27 00:28:33;;;;;;;4.10;3.00;;;;;;;9.45;82.00;99522.08;108910;1277;139743;-64
2022/04/27 00:31:05;;;;;;;3.10;2.80;;;;;;;9.43;82.00;99521.30;109077;1277;22685;-64
2022/04/27 00:33:47;;;;;;;3.60;3.00;;;;;;;9.41;82.05;99525.12;108854;1277;22406;-64
2022/04/27 00:36:19;;;;;;;4.20;3.00;;;;;;;9.40;82.03;99524.23;108910;1276;137909;-64
2022/04/27 00:38:47;;;;;;;4.00;2.90;;;;;;;9.38;81.96;99526.27;109288;1276;22442;-64
2022/04/27 00:41:20;;;;;;;2.80;2.50;;;;;;;9.37;82.04;99532.52;109003;1276;137761;-64
2022/04/27 00:43:50;;;;;;;2.80;2.50;;;;;;;9.34;81.96;99537.88;109181;1276;22447;-64
2022/04/27 00:46:21;;;;;;;4.50;3.30;;;;;;;9.32;81.87;99544.23;108985;1277;138548;-63
2022/04/27 00:48:58;;;;;;;3.50;2.90;;;;;;;9.29;82.05;99551.30;109259;1276;22269;-63
2022/04/27 00:51:30;;;;;;;3.60;2.70;;;;;;;9.25;82.07;99556.57;109247;1276;23148;-64
2022/04/27 00:54:01;;;;;;;3.10;2.60;;;;;;;9.23;82.17;99557.60;109111;1277;139037;-64
2022/04/27 00:56:32;;;;;;;3.90;2.80;;;;;;;9.21;82.12;99561.55;108963;1277;23185;-63
2022/04/27 00:59:02;;;;;;;4.80;3.10;;;;;;;9.18;82.14;99564.42;108961;1277;138000;-63
2022/04/27 01:01:33;;;;;;;6.30;3.30;;;;;;;9.16;82.18;99565.14;109123;1277;22234;-65
2022/04/27 01:04:07;;;;;;;7.30;3.60;;;;;;;9.11;82.28;99561.70;109282;1276;23079;-68
2022/04/27 01:06:37;;;;;;;3.20;2.70;;;;;;;9.14;82.21;99568.48;108856;1276;139309;-63
2022/04/27 01:09:08;;;;;;;4.90;2.90;;;;;;;9.13;82.25;99564.48;109078;1277;22468;-64
2022/04/27 01:11:40;;;;;;;5.70;3.00;;;;;;;9.12;82.23;99568.16;108989;1276;138950;-64
2022/04/27 01:14:10;;;;;;;4.20;3.00;;;;;;;9.11;82.31;99570.06;109185;1277;22434;-63
2022/04/27 01:16:41;;;;;;;6.40;4.20;;;;;;;9.11;82.34;99572.82;108797;1276;138514;-63
2022/04/27 01:19:12;;;;;;;5.00;3.60;;;;;;;9.11;82.39;99570.70;109232;1276;23235;-64
2022/04/27 01:24:40;;;;;;;7.70;3.60;;;;;;;9.15;82.45;99572.46;101501;1310;545754;-64
2022/04/27 01:27:10;;;;;;;4.20;3.60;;;;;;;9.14;82.36;99575.98;108065;1288;23288;-64
2022/04/27 01:29:44;;;;;;;5.90;3.30;;;;;;;9.13;82.31;99577.55;107516;1288;137943;-65
2022/04/27 01:32:15;;;;;;;6.70;3.30;;;;;;;9.13;82.23;99579.39;107660;1289;22633;-64
2022/04/27 01:34:43;;;;;;;4.60;3.40;;;;;;;9.12;82.31;99576.98;107594;1287;139816;-64
2022/04/27 01:40:00;;;;;;;6.80;3.60;;;;;;;9.14;82.27;99582.78;108072;1285;22592;-65
2022/04/27 01:42:30;;;;;;;3.50;2.70;;;;;;;9.14;82.37;99579.85;108287;1286;137650;-65
2022/04/27 01:45:02;;;;;;;3.80;2.80;;;;;;;9.15;82.29;99578.28;107991;1287;22536;-65
2022/04/27 01:47:31;;;;;;;4.20;2.60;;;;;;;9.13;82.28;99576.79;108385;1283;138179;-65
2022/04/27 01:49:59;;;;;;;3.00;2.50;;;;;;;9.14;82.33;99581.48;108989;1279;22685;-63
2022/04/27 01:55:16;;;;;;;8.70;3.40;;;;;;;9.14;82.43;99583.92;108953;1277;22459;-65
2022/04/27 01:57:44;;;;;;;6.00;2.80;;;;;;;9.13;82.49;99582.27;108963;1277;22457;-65
2022/04/27 02:00:17;;;;;;;6.20;3.10;;;;;;;9.13;82.47;99579.44;108975;1277;137727;-65
2022/04/27 02:02:48;;;;;;;4.60;2.80;;;;;;;9.11;82.48;99581.26;108994;1277;23299;-65
2022/04/27 02:05:17;;;;;;;3.80;3.40;;;;;;;9.11;82.51;99585.39;108748;1277;137773;-65
2022/04/27 02:07:47;;;;;;;5.60;2.80;;;;;;;9.11;82.52;99580.77;108812;1280;22469;-63
2022/04/27 02:10:16;;;;;;;6.90;3.10;;;;;;;9.11;82.50;99581.69;108462;1280;138166;-62
2022/04/27 02:12:47;;;;;;;6.60;2.90;;;;;;;9.11;82.52;99581.90;108634;1280;23178;-63
2022/04/27 02:15:21;;;;;;;3.50;2.60;;;;;;;9.09;82.51;99582.98;108930;1280;22502;-63
2022/04/27 02:17:54;;;;;;;7.00;3.20;;;;;;;9.08;82.58;99583.66;108809;1279;139263;-63
2022/04/27 02:20:26;;;;;;;4.30;2.90;;;;;;;9.07;82.62;99589.95;108932;1280;22477;-63
2022/04/27 02:22:57;;;;;;;6.50;3.10;;;;;;;9.05;82.49;99586.66;108862;1280;138109;-65
2022/04/27 02:25:26;;;;;;;4.30;3.30;;;;;;;9.04;82.55;99592.08;108683;1280;22468;-63
2022/04/27 02:27:55;;;;;;;4.70;2.90;;;;;;;9.03;82.54;99592.82;108945;1280;22548;-64
2022/04/27 02:30:24;;;;;;;3.80;3.00;;;;;;;9.02;82.58;99596.34;108316;1280;138864;-64
2022/04/27 02:32:53;;;;;;;5.70;3.20;;;;;;;9.01;82.51;99596.37;108958;1280;22444;-63
2022/04/27 02:35:22;;;;;;;5.20;4.10;;;;;;;8.98;82.41;99594.67;108842;1280;138277;-63
2022/04/27 02:37:50;;;;;;;5.00;3.40;;;;;;;8.95;82.36;99596.43;108945;1280;22450;-63
2022/04/27 02:40:19;;;;;;;4.20;3.20;;;;;;;8.94;82.49;99596.86;108859;1280;137494;-63
2022/04/27 02:42:57;;;;;;;4.00;3.40;;;;;;;8.91;82.45;99597.02;108779;1280;22377;-63
2022/04/27 02:45:26;;;;;;;7.80;2.80;;;;;;;8.88;82.48;99597.14;108942;1280;22392;-63
2022/04/27 02:47:56;;;;;;;4.70;3.20;;;;;;;8.86;82.51;99598.23;108469;1281;137313;-63
2022/04/27 02:53:12;;;;;;;3.20;2.80;;;;;;;8.84;82.60;99601.28;108389;1281;138101;-63
2022/04/27 02:55:42;;;;;;;5.40;3.00;;;;;;;8.84;82.55;99601.12;108586;1281;23534;-63
2022/04/27 02:58:11;;;;;;;4.80;2.90;;;;;;;8.83;82.62;99602.96;108940;1280;22421;-63
2022/04/27 03:00:40;;;;;;;4.70;2.90;;;;;;;8.81;82.60;99605.36;108839;1279;137336;-63
2022/04/27 03:03:10;;;;;;;9.10;3.70;;;;;;;8.81;82.44;99610.95;108888;1280;22413;-63
2022/04/27 03:05:40;;;;;;;4.50;2.80;;;;;;;8.79;82.39;99613.33;108765;1280;138304;-63
2022/04/27 03:08:09;;;;;;;4.00;3.30;;;;;;;8.78;82.42;99612.55;108933;1279;23733;-64
2022/04/27 03:10:47;;;;;;;7.40;3.20;;;;;;;8.75;82.40;99612.83;108828;1280;137892;-64
2022/04/27 03:13:15;;;;;;;7.30;3.30;;;;;;;8.76;82.43;99616.48;108951;1280;23542;-64
2022/04/27 03:15:53;;;;;;;8.70;3.10;;;;;;;8.76;82.33;99622.30;108651;1280;22405;-64
2022/04/27 03:18:21;;;;;;;5.50;3.40;;;;;;;8.74;82.28;99625.13;108832;1280;139757;-64
2022/04/27 03:20:50;;;;;;;4.30;3.10;;;;;;;8.71;82.19;99629.20;108804;1280;22419;-64
2022/04/27 03:23:18;;;;;;;4.40;3.00;;;;;;;8.69;82.05;99629.11;108876;1280;138742;-64
2022/04/27 03:25:59;;;;;;;4.90;3.20;;;;;;;8.67;82.01;99638.29;108972;1279;23194;-64
2022/04/27 03:28:28;;;;;;;6.60;3.80;;;;;;;8.65;81.91;99639.68;108818;1278;139367;-64
2022/04/27 03:30:57;;;;;;;4.00;2.90;;;;;;;8.64;81.91;99639.88;108970;1278;22424;-65
2022/04/27 03:33:37;;;;;;;3.90;3.00;;;;;;;8.63;81.94;99642.68;108949;1279;22417;-65
2022/04/27 03:36:11;;;;;;;3.60;2.90;;;;;;;8.62;81.83;99646.75;108784;1280;138042;-65
2022/04/27 03:38:54;;;;;;;3.50;3.10;;;;;;;8.62;81.88;99649.84;109000;1280;22518;-65
2022/04/27 03:41:27;;;;;;;3.20;2.90;;;;;;;8.62;81.80;99655.33;108861;1280;140126;-65
2022/04/27 03:43:56;;;;;;;5.10;3.90;;;;;;;8.62;81.88;99656.95;108965;1280;23712;-65
2022/04/27 03:46:24;;;;;;;4.10;3.40;;;;;;;8.64;81.84;99653.14;108800;1279;137946;-64
2022/04/27 03:49:13;;;;;;;5.20;3.50;;;;;;;8.70;81.91;99653.67;109007;1278;22432;-65
2022/04/27 03:51:41;;;;;;;5.60;4.00;;;;;;;8.76;81.74;99653.80;108905;1280;22624;-65
2022/04/27 03:54:09;;;;;;;9.00;4.30;;;;;;;8.84;81.67;99651.98;108689;1281;137939;-65
2022/04/27 03:56:38;;;;;;;5.20;3.80;;;;;;;8.94;81.48;99652.23;106274;1279;22574;-63
2022/04/27 03:59:06;;;;;;;8.30;4.10;;;;;;;9.04;81.22;99656.43;104460;1280;139149;-62
2022/04/27 04:01:35;;;;;;;5.30;3.20;;;;;;;9.13;80.88;99657.95;104576;1280;23974;-62
2022/04/27 04:04:03;;;;;;;4.10;3.00;;;;;;;9.21;80.42;99663.74;108936;1279;23139;-63
2022/04/27 04:06:32;;;;;;;5.90;3.20;;;;;;;9.29;80.43;99662.56;108877;1279;137682;-64
2022/04/27 04:09:06;;;;;;;4.20;3.50;;;;;;;9.37;79.90;99666.04;108923;1280;22453;-63
2022/04/27 04:11:34;;;;;;;10.70;3.50;;;;;;;9.46;79.70;99665.70;108797;1279;138888;-64
2022/04/27 04:14:23;;;;;;;7.10;3.20;;;;;;;9.54;79.20;99673.59;108960;1279;23221;-63
2022/04/27 04:16:56;;;;;;;3.60;3.00;;;;;;;9.60;78.92;99671.83;108909;1280;138884;-64
2022/04/27 04:19:44;;;;;;;3.50;3.20;;;;;;;9.67;78.52;99677.27;108892;1279;22483;-64
2022/04/27 04:22:32;;;;;;;;;;;;;;;9.71;78.39;99678.15;108869;1277;139397;-64
2022/04/27 04:30:52;;;;;;;4.60;3.40;;;;;;;10.06;77.57;99675.58;108776;1280;137862;-64
2022/04/27 04:33:40;;;;;;;4.60;3.60;;;;;;;10.27;77.30;99676.08;109005;1278;22440;-64
2022/04/27 04:36:09;;;;;;;5.70;3.30;;;;;;;10.50;76.54;99679.63;108809;1278;137982;-64
2022/04/27 04:38:42;;;;;;;4.70;3.20;;;;;;;10.74;75.77;99681.65;108920;1278;22515;-64
2022/04/27 04:41:30;;;;;;;5.80;3.20;;;;;;;10.99;74.93;99682.38;108892;1277;139380;-64
2022/04/27 04:43:59;;;;;;;8.90;3.70;;;;;;;11.24;74.38;99681.31;108973;1278;22503;-64
2022/04/27 04:46:33;;;;;;;4.40;3.10;;;;;;;11.52;73.22;99683.58;108969;1277;23057;-65
2022/04/27 04:49:23;;;;;;;3.20;2.80;;;;;;;11.73;71.90;99682.46;108956;1280;22449;-65
2022/04/27 04:52:11;;;;;;;4.20;2.70;;;;;;;12.04;71.56;99687.16;109014;1279;22494;-65
2022/04/27 04:55:10;;;;;;;3.30;2.70;;;;;;;12.44;70.36;99685.53;108662;1280;137901;-66
2022/04/27 04:57:57;;;;;;;4.80;3.20;;;;;;;12.75;69.04;99677.55;109053;1277;22457;-66
2022/04/27 05:00:38;;;;;;;9.20;2.90;;;;;;;13.12;68.27;99687.52;108823;1280;137771;-65
2022/04/27 05:03:38;;;;;;;3.90;3.00;;;;;;;13.51;67.01;99686.23;108708;1280;22596;-66
2022/04/27 05:06:32;;;;;;;4.30;2.70;;;;;;;13.81;65.23;99687.48;108899;1279;137423;-66
2022/04/27 05:09:17;;;;;;;4.50;2.80;;;;;;;14.01;64.59;99685.09;109016;1277;23714;-66
2022/04/27 05:12:05;;;;;;;4.50;2.50;;;;;;;14.30;64.06;99688.92;108956;1277;138458;-65
2022/04/27 05:14:50;;;;;;;3.20;2.90;;;;;;;14.63;63.01;99691.20;109001;1277;22502;-64
2022/04/27 05:17:41;;;;;;;3.70;2.70;;;;;;;14.93;61.62;99689.74;108643;1277;137479;-64
2022/04/27 05:20:24;;;;;;;5.40;2.70;;;;;;;15.12;60.43;99690.41;108976;1277;23689;-64
2022/04/27 05:23:17;;;;;;;4.50;2.60;;;;;;;15.29;59.46;99694.58;108816;1277;138657;-64
2022/04/27 05:26:03;;;;;;;4.00;2.70;;;;;;;15.41;58.76;99694.61;108940;1279;22446;-64
2022/04/27 05:32:00;;;;;;;9.30;4.10;;;;;;;15.55;57.64;99698.55;108867;1279;138884;-64
2022/04/27 05:34:40;;;;;;;3.60;3.30;;;;;;;15.43;56.44;99702.61;109056;1277;22472;-64
2022/04/27 05:37:24;;;;;;;6.70;3.90;;;;;;;15.13;57.24;99707.52;108496;1280;138064;-64
2022/04/27 05:40:05;;;;;;;3.30;2.80;;;;;;;14.97;56.93;99709.14;108992;1278;22437;-64
2022/04/27 05:42:42;;;;;;;3.10;2.80;;;;;;;14.77;57.25;99720.39;108859;1277;137425;-64
2022/04/27 05:45:29;;;;;;;4.70;3.60;;;;;;;14.53;57.50;99712.56;108955;1277;23623;-65
2022/04/27 05:48:16;;;;;;;;;;;;;;;14.35;58.25;99715.27;108842;1277;138775;-64
2022/04/27 05:51:10;;;;;;;3.10;2.70;;;;;;;14.28;59.03;99720.29;108755;1279;22469;-64
2022/04/27 05:53:54;;;;;;;5.10;3.30;;;;;;;14.26;59.27;99720.46;108898;1279;138495;-64
2022/04/27 05:56:37;;;;;;;4.50;3.00;;;;;;;14.27;59.42;99719.91;108991;1277;22447;-64
2022/04/27 05:59:08;;;;;;;3.20;2.90;;;;;;;14.24;59.58;99718.44;109076;1277;22278;-64
2022/04/27 06:01:42;;;;;;;4.90;3.10;;;;;;;14.21;59.87;99722.81;109010;1277;138860;-64
2022/04/27 06:04:11;;;;;;;5.30;3.70;;;;;;;14.18;59.82;99726.27;108938;1277;22942;-64
2022/04/27 06:06:42;;;;;;;5.40;3.70;;;;;;;14.16;59.89;99732.46;108816;1278;137316;-64
2022/04/27 06:09:17;;;;;;;5.30;3.70;;;;;;;14.09;59.55;99730.95;108989;1277;23280;-64
2022/04/27 06:11:54;;;;;;;4.60;3.30;;;;;;;13.95;60.10;99740.51;108886;1277;138773;-66
2022/04/27 06:14:55;;;;;;;4.70;3.40;;;;;;;13.88;60.38;99738.63;108678;1280;22531;-64
2022/04/27 06:17:31;;;;;;;5.00;3.80;;;;;;;13.87;60.98;99741.96;108867;1279;137735;-63
2022/04/27 06:20:00;;;;;;;4.60;3.80;;;;;;;13.85;60.24;99746.03;108955;1280;23371;-64
2022/04/27 06:22:29;;;;;;;6.80;3.80;;;;;;;13.78;59.39;99755.01;108915;1278;22539;-66
2022/04/27 06:24:57;;;;;;;4.10;3.00;;;;;;;13.60;59.40;99758.39;108926;1278;137620;-64
2022/04/27 06:27:49;;;;;;;4.50;3.50;;;;;;;13.41;59.77;99757.48;108898;1280;22443;-64
2022/04/27 06:30:18;;;;;;;4.10;3.30;;;;;;;13.37;60.33;99759.55;108899;1279;137408;-64
2022/04/27 06:32:47;;;;;;;5.30;3.20;;;;;;;13.35;60.58;99760.86;108935;1278;22441;-64
2022/04/27 06:35:15;;;;;;;4.10;3.30;;;;;;;13.32;60.65;99764.20;108939;1280;22430;-65
2022/04/27 06:37:47;;;;;;;7.40;3.70;;;;;;;13.29;61.29;99763.08;108830;1278;137998;-64
2022/04/27 06:40:15;;;;;;;5.20;3.30;;;;;;;13.32;61.80;99769.66;108902;1277;22546;-65
2022/04/27 06:42:44;;;;;;;3.70;2.80;;;;;;;13.37;62.07;99768.54;108998;1278;137618;-65
2022/04/27 06:45:31;;;;;;;4.60;3.10;;;;;;;13.41;60.77;99774.30;109122;1277;22520;-65
2022/04/27 06:48:18;;;;;;;6.10;3.40;;;;;;;13.35;60.38;99775.27;108959;1277;138354;-65
2022/04/27 06:51:05;;;;;;;6.70;3.30;;;;;;;13.29;60.28;99780.98;109030;1278;22472;-64
2022/04/27 06:53:52;;;;;;;3.30;3.00;;;;;;;13.23;60.45;99783.11;108982;1277;138443;-64
2022/04/27 06:56:46;;;;;;;4.20;2.90;;;;;;;13.18;59.89;99786.27;108764;1280;22797;-65
2022/04/27 06:59:37;;;;;;;3.90;3.10;;;;;;;13.18;60.76;99795.34;108850;1280;137422;-64
2022/04/27 07:02:09;;;;;;;4.40;3.30;;;;;;;13.22;60.63;99797.66;108913;1277;23389;-64
2022/04/27 07:04:43;;;;;;;4.50;3.10;;;;;;;13.26;60.00;99794.63;108965;1279;22474;-63
2022/04/27 07:07:12;;;;;;;3.40;2.80;;;;;;;13.25;59.89;99802.55;105303;1278;138060;-64
2022/04/27 07:09:43;;;;;;;4.00;3.10;;;;;;;13.25;59.70;99806.05;104576;1280;24325;-65
2022/04/27 07:12:13;;;;;;;5.20;3.10;;;;;;;13.25;60.07;99808.13;104450;1280;138365;-65
2022/04/27 07:14:41;;;;;;;5.90;3.60;;;;;;;13.26;59.59;99813.33;109018;1277;23235;-64
2022/04/27 07:17:09;;;;;;;5.50;3.50;;;;;;;13.20;59.11;99813.52;109131;1277;22509;-65
2022/04/27 07:19:38;;;;;;;4.60;3.40;;;;;;;13.13;59.17;99813.09;108988;1278;139108;-63
2022/04/27 07:22:06;;;;;;;7.90;3.90;;;;;;;13.06;59.27;99817.27;109110;1278;23307;-64
2022/04/27 07:24:34;;;;;;;3.80;3.10;;;;;;;12.98;58.94;99813.34;108941;1277;137369;-65
2022/04/27 07:27:05;;;;;;;2.90;2.40;;;;;;;12.94;59.93;99813.33;108979;1279;22635;-65
2022/04/27 07:29:34;;;;;;;6.70;3.50;;;;;;;12.97;60.52;99815.70;108989;1277;137407;-65
2022/04/27 07:32:03;;;;;;;4.10;3.00;;;;;;;13.02;60.87;99812.65;109097;1277;23465;-65
2022/04/27 07:34:31;;;;;;;4.30;3.20;;;;;;;13.10;60.61;99818.27;109042;1278;22534;-65
2022/04/27 07:37:01;;;;;;;3.60;2.70;;;;;;;13.18;60.60;99819.85;108884;1280;138529;-65
2022/04/27 07:39:30;;;;;;;4.80;3.20;;;;;;;13.23;59.79;99818.96;109068;1278;22446;-64
2022/04/27 07:41:58;;;;;;;3.10;2.80;;;;;;;13.28;59.73;99820.21;108991;1277;138257;-64
2022/04/27 07:44:26;;;;;;;4.00;3.00;;;;;;;13.31;60.25;99816.13;109114;1277;22464;-64
2022/04/27 07:46:54;;;;;;;4.60;3.20;;;;;;;13.35;60.42;99815.27;109033;1280;22542;-64
2022/04/27 07:49:22;;;;;;;5.00;2.70;;;;;;;13.39;60.03;99819.73;108982;1278;137595;-64
2022/04/27 07:51:50;;;;;;;5.30;2.80;;;;;;;13.35;60.21;99819.27;109117;1278;22444;-64
2022/04/27 07:54:36;;;;;;;4.50;3.20;;;;;;;13.36;59.41;99822.89;109024;1278;138523;-64
2022/04/27 07:57:04;;;;;;;6.80;3.60;;;;;;;13.33;58.68;99829.22;109069;1278;22430;-65
2022/04/27 07:59:40;;;;;;;5.10;3.10;;;;;;;13.26;59.59;99830.63;109016;1277;139964;-65
2022/04/27 08:02:08;;;;;;;4.50;3.20;;;;;;;13.29;60.13;99832.38;109093;1278;22505;-65
2022/04/27 08:04:36;;;;;;;5.30;3.90;;;;;;;13.34;59.39;99835.69;109070;1278;22496;-65
2022/04/27 08:07:04;;;;;;;5.80;3.40;;;;;;;13.36;59.04;99837.45;108936;1278;137335;-65
2022/04/27 08:09:33;;;;;;;4.60;2.80;;;;;;;13.36;58.89;99837.55;109104;1277;22416;-65
2022/04/27 08:12:02;;;;;;;4.70;3.30;;;;;;;13.34;59.45;99840.11;108881;1279;139398;-65
2022/04/27 08:14:37;;;;;;;8.40;3.90;;;;;;;13.36;59.84;99840.34;109121;1278;22502;-65
2022/04/27 08:17:06;;;;;;;3.20;2.80;;;;;;;13.44;60.45;99839.98;105460;1280;24016;-64
2022/04/27 08:19:34;;;;;;;5.00;3.40;;;;;;;13.52;60.37;99835.96;108893;1279;137649;-65
2022/04/27 08:22:06;;;;;;;5.80;3.30;;;;;;;13.58;58.92;99832.08;109079;1277;22450;-65
2022/04/27 08:24:40;;;;;;;5.00;3.10;;;;;;;13.59;58.34;99836.41;109000;1277;138418;-65
2022/04/27 08:27:08;;;;;;;5.40;2.90;;;;;;;13.58;57.07;99843.41;109136;1278;23215;-65
2022/04/27 08:29:37;;;;;;;3.40;2.80;;;;;;;13.57;57.20;99844.16;108977;1277;138480;-65
2022/04/27 08:32:07;;;;;;;4.00;3.30;;;;;;;13.59;57.12;99850.42;109097;1278;23621;-65
2022/04/27 08:34:35;;;;;;;4.20;3.10;;;;;;;13.61;57.01;99845.45;109116;1277;23615;-65
2022/04/27 08:37:05;;;;;;;5.50;3.30;;;;;;;13.63;56.73;99846.39;109037;1277;138262;-65
2022/04/27 08:39:33;;;;;;;9.50;3.40;;;;;;;13.65;57.00;99848.98;109028;1279;22437;-65
2022/04/27 08:42:01;;;;;;;7.20;3.70;;;;;;;13.68;56.63;99849.48;108963;1277;137521;-65
2022/04/27 08:44:30;;;;;;;3.30;2.60;;;;;;;13.72;56.80;99848.38;109087;1278;22489;-65
2022/04/27 08:46:59;;;;;;;3.80;2.80;;;;;;;13.78;56.34;99845.89;109124;1277;22560;-65
2022/04/27 08:49:32;;;;;;;3.10;2.60;;;;;;;13.86;56.60;99848.02;108954;1278;138669;-65
2022/04/27 08:52:03;;;;;;;3.70;2.90;;;;;;;13.95;55.50;99845.30;108891;1278;23306;-65
2022/04/27 08:54:33;;;;;;;4.40;3.00;;;;;;;14.00;55.44;99846.79;108877;1280;137877;-65
2022/04/27 08:57:04;;;;;;;5.00;3.00;;;;;;;14.04;54.93;99846.39;109065;1277;22624;-65
2022/04/27 08:59:32;;;;;;;7.10;3.00;;;;;;;14.03;55.16;99849.47;109026;1277;139151;-65
2022/04/27 09:02:26;;;;;;;3.20;2.50;;;;;;;14.04;54.98;99846.67;109082;1277;23333;-65
2022/04/27 09:05:14;;;;;;;4.50;2.80;;;;;;;14.10;54.84;99844.60;109070;1277;22405;-65
2022/04/27 09:07:46;;;;;;;5.90;3.00;;;;;;;14.21;52.63;99849.10;108902;1279;137069;-65
2022/04/27 09:10:15;;;;;;;3.30;2.50;;;;;;;14.20;52.62;99852.66;108910;1280;23510;-65
2022/04/27 09:12:52;;;;;;;4.20;2.60;;;;;;;14.21;52.50;99854.96;108960;1278;137409;-65
2022/04/27 09:15:25;;;;;;;3.10;2.20;;;;;;;14.19;51.54;99847.67;109023;1280;22409;-65
2022/04/27 09:20:54;;;;;;;4.50;2.50;;;;;;;14.21;50.78;99853.43;109124;1277;22441;-65
2022/04/27 09:23:40;;;;;;;4.10;2.30;;;;;;;14.21;51.66;99849.87;109002;1278;137850;-65
2022/04/27 09:26:19;;;;;;;3.20;2.60;;;;;;;14.24;50.87;99847.79;109119;1278;22373;-65
2022/04/27 09:28:50;;;;;;;4.70;2.90;;;;;;;14.25;51.03;99849.27;109146;1277;22472;-65
2022/04/27 09:31:26;;;;;;;3.30;2.40;;;;;;;14.27;50.36;99852.79;108985;1278;137335;-65
2022/04/27 09:34:02;;;;;;;3.40;2.20;;;;;;;14.27;48.87;99847.85;108978;1279;22460;-65
2022/04/27 09:36:30;;;;;;;3.70;2.70;;;;;;;14.28;49.55;99850.04;109013;1277;138987;-65
2022/04/27 09:38:59;;;;;;;6.30;2.40;;;;;;;14.33;49.85;99846.19;108861;1279;23199;-65
2022/04/27 09:41:42;;;;;;;4.00;2.10;;;;;;;14.39;49.59;99842.10;108898;1278;138728;-63
2022/04/27 09:44:30;;;;;;;4.20;2.40;;;;;;;14.46;49.35;99847.91;109063;1278;22449;-65
2022/04/27 09:47:02;;;;;;;3.00;2.30;;;;;;;14.52;49.49;99849.29;109124;1278;23295;-65
2022/04/27 09:49:32;;;;;;;8.40;2.70;;;;;;;14.55;49.47;99848.14;109000;1277;137857;-65
2022/04/27 09:52:04;;;;;;;3.60;2.60;;;;;;;14.57;49.39;99843.56;108960;1277;22480;-64
2022/04/27 09:54:36;;;;;;;2.20;2.00;;;;;;;14.59;48.23;99843.35;108888;1279;138294;-65
2022/04/27 09:57:05;;;;;;;2.80;1.90;;;;;;;14.60;47.61;99841.20;109089;1277;23215;-65
2022/04/27 09:59:35;;;;;;;5.90;1.90;;;;;;;14.62;46.96;99841.42;109052;1277;139167;-65
2022/04/27 10:02:08;;;;;;;2.00;1.70;;;;;;;14.63;47.24;99841.05;109101;1277;24456;-65
2022/04/27 10:04:40;;;;;;;2.80;2.00;;;;;;;14.68;45.93;99844.71;109089;1277;23178;-65
2022/04/27 10:07:13;;;;;;;2.50;1.80;;;;;;;14.73;45.50;99843.77;108990;1277;137963;-64
2022/04/27 10:09:42;;;;;;;3.00;2.30;;;;;;;14.75;45.97;99848.58;109020;1278;22439;-64
2022/04/27 10:12:11;;;;;;;2.40;1.90;;;;;;;14.73;46.29;99840.73;108853;1278;138810;-64
2022/04/27 10:14:45;;;;;;;4.00;2.20;;;;;;;14.73;46.86;99840.35;109064;1278;22437;-64
2022/04/27 10:17:13;;;;;;;3.10;2.10;;;;;;;14.77;47.06;99846.50;108995;1279;22507;-64
2022/04/27 10:19:48;;;;;;;4.30;2.20;;;;;;;14.82;46.01;99843.64;108931;1278;137407;-65
2022/04/27 10:22:33;;;;;;;2.40;2.20;;;;;;;14.83;46.46;99838.38;108984;1278;22541;-65
2022/04/27 10:25:06;;;;;;;7.50;1.80;;;;;;;14.86;45.96;99841.54;108975;1277;138501;-65
2022/04/27 10:27:57;;;;;;;5.10;1.80;;;;;;;14.91;46.44;99840.11;109081;1277;22242;-65
2022/04/27 10:30:42;;;;;;;2.50;1.80;;;;;;;14.99;45.85;99844.70;108915;1277;138509;-64
2022/04/27 10:33:10;;;;;;;3.20;1.80;;;;;;;15.06;45.14;99847.35;109038;1280;22415;-64
2022/04/27 10:35:38;;;;;;;2.20;2.00;;;;;;;15.10;45.02;99845.91;109053;1277;137775;-63
2022/04/27 10:38:06;;;;;;;4.50;1.90;;;;;;;15.12;44.98;99844.39;109135;1277;22440;-64
2022/04/27 10:40:37;;;;;;;4.20;1.70;;;;;;;15.13;45.10;99838.29;109139;1277;23668;-65
2022/04/27 10:43:13;;;;;;;2.60;2.00;;;;;;;15.14;44.35;99846.58;109042;1277;137725;-65
2022/04/27 10:45:43;;;;;;;4.10;2.20;;;;;;;15.10;43.88;99844.77;109112;1278;22439;-65
2022/04/27 10:48:23;;;;;;;4.50;1.80;;;;;;;15.03;44.72;99839.90;108942;1278;138488;-65
2022/04/27 10:51:00;;;;;;;4.60;2.00;;;;;;;15.08;44.89;99847.08;109081;1277;22431;-64
2022/04/27 10:53:38;;;;;;;4.40;2.10;;;;;;;15.10;43.24;99837.09;108870;1279;137795;-66
2022/04/27 10:56:28;;;;;;;;;;;;;;;15.16;42.78;99847.41;108992;1277;22528;-65
2022/04/27 10:58:56;;;;;;;2.40;1.80;;;;;;;15.15;42.55;99850.01;109098;1277;22410;-65
2022/04/27 11:01:27;;;;;;;2.40;2.00;;;;;;;15.12;42.79;99853.93;108897;1277;138513;-65
2022/04/27 11:04:00;;;;;;;2.40;1.70;;;;;;;15.09;42.58;99846.20;109106;1277;22429;-65
2022/04/27 11:06:30;;;;;;;3.20;2.20;;;;;;;15.11;42.32;99847.23;108922;1278;137091;-65
2022/04/27 11:09:20;;;;;;;5.60;3.50;;;;;;;15.11;41.59;99845.48;109006;1277;22447;-65
2022/04/27 11:11:51;;;;;;;2.80;2.30;;;;;;;15.08;41.86;99848.39;108879;1280;137490;-65
2022/04/27 11:14:29;;;;;;;2.70;1.80;;;;;;;15.08;41.61;99851.80;109120;1277;22978;-65
2022/04/27 11:16:59;;;;;;;2.50;1.60;;;;;;;15.10;40.37;99853.88;109154;1277;22426;-65
2022/04/27 11:19:36;;;;;;;2.10;1.70;;;;;;;15.09;40.16;99850.75;108951;1277;138956;-65
2022/04/27 11:22:12;;;;;;;1.90;1.60;;;;;;;15.08;40.74;99846.64;109152;1277;22441;-64
2022/04/27 11:24:42;;;;;;;1.60;1.30;;;;;;;15.11;41.96;99851.85;108975;1277;137627;-64
2022/04/27 11:27:10;;;;;;;2.90;1.80;;;;;;;15.17;41.84;99852.69;109027;1279;22590;-65
2022/04/27 11:29:45;;;;;;;2.00;1.40;;;;;;;15.22;41.30;99847.85;109075;1277;138158;-64
2022/04/27 11:32:16;;;;;;;4.30;1.90;;;;;;;15.26;41.68;99845.53;108997;1278;22524;-64
2022/04/27 11:34:48;;;;;;;2.20;1.90;;;;;;;15.32;41.07;99847.70;109162;1277;23226;-65
2022/04/27 11:37:19;;;;;;;2.30;1.70;;;;;;;15.34;41.01;99848.40;109035;1277;139386;-65
2022/04/27 11:39:48;;;;;;;2.60;1.60;;;;;;;15.34;41.73;99841.15;109023;1280;22409;-65
2022/04/27 11:42:16;;;;;;;2.30;1.70;;;;;;;15.42;42.01;99842.55;109023;1277;137327;-65
2022/04/27 11:44:50;;;;;;;1.70;1.60;;;;;;;15.46;41.18;99840.81;109095;1277;22417;-65
2022/04/27 11:47:30;;;;;;;1.80;1.50;;;;;;;15.50;40.34;99841.35;109168;1277;23293;-65
2022/04/27 11:49:59;;;;;;;1.90;1.70;;;;;;;15.56;39.65;99836.25;108984;1277;138039;-65
2022/04/27 11:52:28;;;;;;;2.10;1.60;;;;;;;15.61;38.79;99833.79;109157;1277;22453;-65
2022/04/27 11:55:10;;;;;;;3.90;1.70;;;;;;;15.65;39.33;99826.80;109267;1274;138848;-65
2022/04/27 11:57:41;;;;;;;4.50;1.90;;;;;;;15.74;41.84;99823.39;109412;1274;22453;-65
2022/04/27 12:00:19;;;;;;;1.30;1.20;;;;;;;15.86;41.12;99824.58;109235;1274;138721;-65
2022/04/27 12:02:49;;;;;;;2.90;1.60;;;;;;;16.00;40.85;99822.05;109389;1274;22444;-65
2022/04/27 12:05:17;;;;;;;1.60;1.40;;;;;;;16.11;38.78;99827.96;109352;1274;22489;-65
2022/04/27 12:07:50;;;;;;;2.30;2.00;;;;;;;16.18;36.73;99823.44;109293;1274;139485;-65
2022/04/27 12:10:19;;;;;;;2.20;1.40;;;;;;;16.17;37.23;99817.02;109255;1274;22452;-65
2022/04/27 12:12:48;;;;;;;1.80;1.40;;;;;;;16.20;38.11;99815.13;109332;1274;138513;-65
2022/04/27 12:15:17;;;;;;;2.70;1.70;;;;;;;16.25;38.13;99821.48;109392;1274;22517;-66
2022/04/27 12:17:58;;;;;;;3.00;1.80;;;;;;;16.30;37.86;99821.88;109121;1274;137876;-64